»·PEaware :: N9193G KBFL-KMHV

N9193G :: KBFL-KMHV

FLIGHT INFORMATION

Flight Status: Arrived
Operator: Privately registered:
United States
More flights under this callsign
Pilot: Seung K. (26649)
Aircraft: CESSNA 206 STATIONAIR
(C206)
More flights by this aircraft type
Origin: KBFL Meadows
United States
Destination: KMHV Mojave
United States
More flights between these airports :: More routes between these airports
Route: DCT
File this flight plan on PilotEdge
Remarks: CAT-6 RATING
Altitude:
(Current/Filed)
7,500ft
Speed:
(Current/Filed)
110kts
Departed: 12-Dec-19 08:30 PM
Arrived: 12-Dec-19 09:11 PM
Distance/Time
Traveled:
50nm/0:41
Distance/Time
To Go:
Arrived

Flight Plot

Page will automatically refresh every two minutes.


Map Options




Map Legend


Flown Route
Filed Route
Departure Airport
Arrival Airport
Navaid (VOR, NDB)
Fix

Horizontal Profiles

Position Reports

Time Latitude Longitude Heading Altitude Ground
Speed
12-Dec-19 20:03 35.426195 -119.042688 179 484ft 0kts
12-Dec-19 20:04 35.426195 -119.042688 179 484ft 0kts
12-Dec-19 20:05 35.426195 -119.042688 179 484ft 0kts
12-Dec-19 20:06 35.426195 -119.042687 179 484ft 0kts
12-Dec-19 20:07 35.426195 -119.042687 179 484ft 0kts
12-Dec-19 20:08 35.426195 -119.042688 179 484ft 0kts
12-Dec-19 20:15 35.426201 -119.042688 179 484ft 0kts
12-Dec-19 20:16 35.426201 -119.042688 179 484ft 0kts
12-Dec-19 20:17 35.426201 -119.042688 179 484ft 0kts
12-Dec-19 20:18 35.426201 -119.042688 179 484ft 0kts
12-Dec-19 20:19 35.426201 -119.042688 179 484ft 0kts
12-Dec-19 20:20 35.426201 -119.042688 179 484ft 0kts
12-Dec-19 20:21 35.426201 -119.042688 179 484ft 0kts
12-Dec-19 20:22 35.426201 -119.042688 179 484ft 0kts
12-Dec-19 20:23 35.426201 -119.042688 179 484ft 0kts
12-Dec-19 20:24 35.426201 -119.042688 179 484ft 0kts
12-Dec-19 20:25 35.426201 -119.042688 179 484ft 0kts
12-Dec-19 20:26 35.426043 -119.042685 179 484ft 8kts
12-Dec-19 20:27 35.425504 -119.044378 270 479ft 1kts
12-Dec-19 20:28 35.425468 -119.045271 281 477ft 0kts
12-Dec-19 20:29 35.431889 -119.052661 319 676ft 102kts
12-Dec-19 20:30 35.453337 -119.055974 63 1685ft 116kts
12-Dec-19 20:31 35.441350 -119.046180 150 2886ft 92kts
12-Dec-19 20:32 35.427048 -119.027577 141 3641ft 121kts
12-Dec-19 20:33 35.412286 -119.010841 121 4792ft 110kts
12-Dec-19 20:34 35.403493 -118.985496 120 5802ft 111kts
12-Dec-19 20:35 35.393793 -118.959792 123 6834ft 109kts
12-Dec-19 20:36 35.383927 -118.934958 124 7777ft 113kts
12-Dec-19 20:37 35.370081 -118.901483 122 7688ft 153kts
12-Dec-19 20:38 35.355003 -118.864607 122 7686ft 156kts
12-Dec-19 20:39 35.340415 -118.829014 122 7686ft 156kts
12-Dec-19 20:40 35.326649 -118.795489 122 7686ft 156kts
12-Dec-19 20:42 35.311801 -118.759372 122 7686ft 156kts
12-Dec-19 20:43 35.297135 -118.723743 122 7686ft 156kts
12-Dec-19 20:44 35.282410 -118.688013 122 7686ft 156kts
12-Dec-19 20:45 35.268324 -118.653958 122 7686ft 156kts
12-Dec-19 20:46 35.254043 -118.619403 122 7686ft 156kts
12-Dec-19 20:47 35.240350 -118.586273 122 7689ft 156kts
12-Dec-19 20:48 35.226431 -118.552636 122 7686ft 156kts
12-Dec-19 20:49 35.212715 -118.519527 122 7685ft 157kts
12-Dec-19 20:50 35.198715 -118.485758 122 7689ft 158kts
12-Dec-19 20:51 35.184080 -118.450489 122 7687ft 157kts
12-Dec-19 20:52 35.169576 -118.415576 122 7698ft 158kts
12-Dec-19 20:53 35.155463 -118.381641 122 7694ft 157kts
12-Dec-19 20:54 35.143696 -118.353377 122 7688ft 157kts
12-Dec-19 20:55 35.131011 -118.322932 123 7685ft 157kts
12-Dec-19 20:56 35.118598 -118.293260 125 7281ft 139kts
12-Dec-19 20:57 35.108843 -118.269935 114 6476ft 107kts
12-Dec-19 20:58 35.105387 -118.246027 107 5586ft 164kts
12-Dec-19 20:59 35.098972 -118.214765 112 4922ft 116kts
12-Dec-19 21:00 35.092516 -118.191948 119 4316ft 110kts
12-Dec-19 21:01 35.084357 -118.170413 118 3816ft 112kts
12-Dec-19 21:02 35.076580 -118.150335 129 3409ft 89kts
12-Dec-19 21:02 35.066323 -118.134308 134 3806ft 122kts
12-Dec-19 21:04 35.050860 -118.111536 138 3725ft 89kts
12-Dec-19 21:05 35.037736 -118.110142 199 3473ft 81kts
12-Dec-19 21:05 35.027693 -118.116872 233 3302ft 80kts
12-Dec-19 21:06 35.037693 -118.121674 19 3437ft 114kts
12-Dec-19 21:08 35.058331 -118.114299 325 3226ft 110kts
12-Dec-19 21:08 35.060643 -118.126171 252 2983ft 72kts
12-Dec-19 21:10 35.059184 -118.142806 258 2799ft 58kts
12-Dec-19 21:10 35.059174 -118.149204 264 2748ft 18kts
12-Dec-19 21:11 35.058581 -118.150145 143 2748ft 28kts
12-Dec-19 21:12 35.056975 -118.151460 248 2747ft 3kts
12-Dec-19 21:13 35.056949 -118.151539 248 2747ft 0kts
12-Dec-19 21:14 35.056940 -118.151568 248 2747ft 0kts

Navigation Log

Ident Type
Flight plan parsing failed, navigation log unavailable